Terminal Aerodrome Forecast
Issued by NWS Missoula, MT

Home | Current Version | Previous Version | Text Only | Print | Product List | Glossary On
Versions: 1 2 3 4 5 6 7 8 9 10 11 12 13 14 15
000
FTUS45 KMSO 300849 AAA
TAFMSO
TAF AMD
KMSO 300849Z 3009/3106 31012G22KT P6SM -SHRA BKN060 OVC080
     FM301200 29005KT P6SM VCSH BKN100
     FM302100 29013G21KT P6SM BKN070=

USA.gov is the U.S. government's official web portal to all federal, state and local government web resources and services.